Nogales International Airport
KOLS : now visible

Airfield :











YOU CAN JOIN US ON...

 
LOGIN :

Register | Disclaimer

   EN    FR    IT 

 









Legend :    VFR   Marginal VFR   IFR   Intensive IFR   Very Intensive IFR
Visi :
Ceiling :
>= 8 km
>= 3000ft
5 to 8 km
1000 to 3000 ft
1500m to 5 km
500 to 1000 ft
800 to 1500m
200 to 500 ft
< 800m
< 200 ft
Symbols :   Thunderstorms  Fog  Heavy snow  Heavy precipitations  Wind > 20 kt






- Airport Elevation : 3955 ft


KOLS - Nogales International

CURRENT METAR :
  • 150654Z AUTO 17005KT 10SM CLR 11/02 A2990 RMK AO2 SLP078 T01110022 402330039

EXPIRED METARs :
  • 150554Z AUTO 20003KT 10SM CLR 12/02 A2991 RMK AO2 SLP084 T01170017 10200 20094 58002
  • 150454Z AUTO 16005KT 10SM CLR 13/02 A2992 RMK AO2 SLP087 T01330017

TAF KOLS
Valid from the 15 at 06:00 until the 16 at 06:00 UTC


150539Z 1506/1606 16005KT P6SM FEW150 SCT250
FM151800 22011G18KT P6SM SCT140 BKN250
FM160100 25005KT P6SM SKC



MET'MAP, your aeronautical weather chart ! - Copyright ORBIFLY December 2007 - Disclaimer

ORBIFLY MET'MAP TEAM :

Programming & Development : Alexandra Zaïnal
Concept & original design : Baudouin d'Aumeries
Assistance for programming : Marc-Olivier Méhu
Technical & hardware support : Manuel Goepfert

Contact : metmap@orbifly.com




SOURCES & CREDITS :

   NOAA       Earth
Advisory